Check out our new PWSWeather beta!
PWSweather.com
Personal Weather Stations
Station Observations
828767
Clearbrook, ClearbrookGB PL6

ClearbrookClearbrookGB PL6

Lat: 50.458829, Lon: -4.093856

Elevation: 453

Station Type: Davis Vantage Pro 2 Plus

http://www.dartmoorwalker.co.uk/weather

High Low Average
Temperature 61.7°F16.5°C 52.4°F11.3°C 57.8°F14.3°C
Dew Point -40.3°F-40.2°C -46.0°F-43.3°C -42.7°F-41.5°C
Winds 8.0 mph 12.9 kmh Calm Calm 3.0 mph SW4.8 kmh SW
Wind Gusts 21.0 mph33.8 kmh 1.0 mph1.6 kmh 10.0 mph16.1 kmh
Humidity 1% 1% 1%
Pressure 29.34 in993.6 mb 29.34 in993.6 mb -
Precipitation 0.00 in0.0 mm - -
Hour Temp Dew Point Humidity Winds Wind Gusts Pressure Precip Precip Rate Daily Precip Total
12:00 AM 59.4°F15.2°C -41.7°F-40.9°C 1% 4.0 mph S6.4 kmh S 14.0 mph22.5 kmh 29.34 in993.6 mb 0.00 in0.0 mm 0.00 in0.0 mm 0.00 in0.0 mm
12:05 AM 59.4°F15.2°C -41.7°F-40.9°C 1% 4.0 mph S6.4 kmh S 14.0 mph22.5 kmh 29.34 in993.6 mb 0.00 in0.0 mm 0.00 in0.0 mm 0.00 in0.0 mm
12:10 AM 59.4°F15.2°C -41.7°F-40.9°C 1% 3.0 mph S4.8 kmh S 16.0 mph25.7 kmh 29.34 in993.6 mb 0.00 in0.0 mm 0.00 in0.0 mm 0.00 in0.0 mm
12:15 AM 59.4°F15.2°C -41.7°F-40.9°C 1% 4.0 mph S6.4 kmh S 16.0 mph25.7 kmh 29.34 in993.6 mb 0.00 in0.0 mm 0.00 in0.0 mm 0.00 in0.0 mm
12:20 AM 59.4°F15.2°C -41.7°F-40.9°C 1% 4.0 mph S6.4 kmh S 11.0 mph17.7 kmh 29.34 in993.6 mb 0.00 in0.0 mm 0.00 in0.0 mm 0.00 in0.0 mm
12:25 AM 59.4°F15.2°C -41.7°F-40.9°C 1% 3.0 mph S4.8 kmh S 11.0 mph17.7 kmh 29.34 in993.6 mb 0.00 in0.0 mm 0.00 in0.0 mm 0.00 in0.0 mm
12:30 AM 59.4°F15.2°C -41.7°F-40.9°C 1% 4.0 mph S6.4 kmh S 10.0 mph16.1 kmh 29.34 in993.6 mb 0.00 in0.0 mm 0.00 in0.0 mm 0.00 in0.0 mm
12:35 AM 59.4°F15.2°C -41.7°F-40.9°C 1% 4.0 mph S6.4 kmh S 10.0 mph16.1 kmh 29.34 in993.6 mb 0.00 in0.0 mm 0.00 in0.0 mm 0.00 in0.0 mm
12:40 AM 59.4°F15.2°C -41.7°F-40.9°C 1% 3.0 mph SSW4.8 kmh SSW 8.0 mph12.9 kmh 29.34 in993.6 mb 0.00 in0.0 mm 0.00 in0.0 mm 0.00 in0.0 mm
12:45 AM 59.4°F15.2°C -41.7°F-40.9°C 1% 2.0 mph S3.2 kmh S 8.0 mph12.9 kmh 29.34 in993.6 mb 0.00 in0.0 mm 0.00 in0.0 mm 0.00 in0.0 mm
12:50 AM 59.4°F15.2°C -41.7°F-40.9°C 1% 4.0 mph S6.4 kmh S 11.0 mph17.7 kmh 29.34 in993.6 mb 0.00 in0.0 mm 0.00 in0.0 mm 0.00 in0.0 mm
12:55 AM 59.4°F15.2°C -41.7°F-40.9°C 1% 4.0 mph S6.4 kmh S 13.0 mph20.9 kmh 29.34 in993.6 mb 0.00 in0.0 mm 0.00 in0.0 mm 0.00 in0.0 mm
01:00 AM 59.3°F15.2°C -41.7°F-40.9°C 1% 4.0 mph S6.4 kmh S 13.0 mph20.9 kmh 29.34 in993.6 mb 0.00 in0.0 mm 0.00 in0.0 mm 0.00 in0.0 mm
01:05 AM 59.3°F15.2°C -41.7°F-40.9°C 1% 5.0 mph S8.0 kmh S 12.0 mph19.3 kmh 29.34 in993.6 mb 0.00 in0.0 mm 0.00 in0.0 mm 0.00 in0.0 mm
01:10 AM 59.3°F15.2°C -41.7°F-40.9°C 1% 5.0 mph S8.0 kmh S 12.0 mph19.3 kmh 29.34 in993.6 mb 0.00 in0.0 mm 0.00 in0.0 mm 0.00 in0.0 mm
01:15 AM 59.4°F15.2°C -41.7°F-40.9°C 1% 3.0 mph S4.8 kmh S 8.0 mph12.9 kmh 29.34 in993.6 mb 0.00 in0.0 mm 0.00 in0.0 mm 0.00 in0.0 mm
01:20 AM 59.4°F15.2°C -41.7°F-40.9°C 1% 3.0 mph S4.8 kmh S 7.0 mph11.3 kmh 29.34 in993.6 mb 0.00 in0.0 mm 0.00 in0.0 mm 0.00 in0.0 mm
01:25 AM 59.4°F15.2°C -41.7°F-40.9°C 1% 3.0 mph S4.8 kmh S 10.0 mph16.1 kmh 29.34 in993.6 mb 0.00 in0.0 mm 0.00 in0.0 mm 0.00 in0.0 mm
01:30 AM 59.4°F15.2°C -41.7°F-40.9°C 1% 4.0 mph S6.4 kmh S 11.0 mph17.7 kmh 29.34 in993.6 mb 0.00 in0.0 mm 0.00 in0.0 mm 0.00 in0.0 mm
01:35 AM 59.4°F15.2°C -41.7°F-40.9°C 1% 4.0 mph S6.4 kmh S 12.0 mph19.3 kmh 29.34 in993.6 mb 0.00 in0.0 mm 0.00 in0.0 mm 0.00 in0.0 mm
01:40 AM 59.3°F15.2°C -41.7°F-40.9°C 1% 5.0 mph SSW8.0 kmh SSW 12.0 mph19.3 kmh 29.34 in993.6 mb 0.00 in0.0 mm 0.00 in0.0 mm 0.00 in0.0 mm
01:45 AM 59.3°F15.2°C -41.7°F-40.9°C 1% 5.0 mph S8.0 kmh S 12.0 mph19.3 kmh 29.34 in993.6 mb 0.00 in0.0 mm 0.00 in0.0 mm 0.00 in0.0 mm
01:50 AM 59.3°F15.2°C -41.7°F-40.9°C 1% 4.0 mph SSW6.4 kmh SSW 10.0 mph16.1 kmh 29.34 in993.6 mb 0.00 in0.0 mm 0.00 in0.0 mm 0.00 in0.0 mm
01:55 AM 59.3°F15.2°C -41.7°F-40.9°C 1% 4.0 mph S6.4 kmh S 9.0 mph14.5 kmh 29.34 in993.6 mb 0.00 in0.0 mm 0.00 in0.0 mm 0.00 in0.0 mm
02:00 AM 59.3°F15.2°C -41.7°F-40.9°C 1% 4.0 mph SSW6.4 kmh SSW 14.0 mph22.5 kmh 29.34 in993.6 mb 0.00 in0.0 mm 0.00 in0.0 mm 0.00 in0.0 mm
02:05 AM 59.3°F15.2°C -41.7°F-40.9°C 1% 4.0 mph SSW6.4 kmh SSW 14.0 mph22.5 kmh 29.34 in993.6 mb 0.00 in0.0 mm 0.00 in0.0 mm 0.00 in0.0 mm
02:10 AM 59.3°F15.2°C -41.7°F-40.9°C 1% 4.0 mph SSW6.4 kmh SSW 14.0 mph22.5 kmh 29.34 in993.6 mb 0.00 in0.0 mm 0.00 in0.0 mm 0.00 in0.0 mm
02:15 AM 59.3°F15.2°C -41.7°F-40.9°C 1% 3.0 mph SSW4.8 kmh SSW 15.0 mph24.1 kmh 29.34 in993.6 mb 0.00 in0.0 mm 0.00 in0.0 mm 0.00 in0.0 mm
02:20 AM 59.1°F15.1°C -41.9°F-41.1°C 1% 3.0 mph SSW4.8 kmh SSW 15.0 mph24.1 kmh 29.34 in993.6 mb 0.00 in0.0 mm 0.00 in0.0 mm 0.00 in0.0 mm
02:25 AM 59.1°F15.1°C -41.9°F-41.1°C 1% 5.0 mph S8.0 kmh S 13.0 mph20.9 kmh 29.34 in993.6 mb 0.00 in0.0 mm 0.00 in0.0 mm 0.00 in0.0 mm
02:30 AM 59.1°F15.1°C -41.9°F-41.1°C 1% 3.0 mph S4.8 kmh S 11.0 mph17.7 kmh 29.34 in993.6 mb 0.00 in0.0 mm 0.00 in0.0 mm 0.00 in0.0 mm
02:35 AM 59.0°F15.0°C -41.9°F-41.1°C 1% 3.0 mph S4.8 kmh S 10.0 mph16.1 kmh 29.34 in993.6 mb 0.00 in0.0 mm 0.00 in0.0 mm 0.00 in0.0 mm
02:40 AM 59.0°F15.0°C -41.9°F-41.1°C 1% 4.0 mph S6.4 kmh S 11.0 mph17.7 kmh 29.34 in993.6 mb 0.00 in0.0 mm 0.00 in0.0 mm 0.00 in0.0 mm
02:45 AM 59.0°F15.0°C -41.9°F-41.1°C 1% 3.0 mph S4.8 kmh S 11.0 mph17.7 kmh 29.34 in993.6 mb 0.00 in0.0 mm 0.00 in0.0 mm 0.00 in0.0 mm
02:50 AM 59.0°F15.0°C -41.9°F-41.1°C 1% 3.0 mph SSW4.8 kmh SSW 11.0 mph17.7 kmh 29.34 in993.6 mb 0.00 in0.0 mm 0.00 in0.0 mm 0.00 in0.0 mm
02:55 AM 59.0°F15.0°C -41.9°F-41.1°C 1% 3.0 mph SSW4.8 kmh SSW 11.0 mph17.7 kmh 29.34 in993.6 mb 0.00 in0.0 mm 0.00 in0.0 mm 0.00 in0.0 mm
03:00 AM 58.9°F14.9°C -42.0°F-41.1°C 1% 3.0 mph SSW4.8 kmh SSW 12.0 mph19.3 kmh 29.34 in993.6 mb 0.00 in0.0 mm 0.00 in0.0 mm 0.00 in0.0 mm
03:05 AM 58.9°F14.9°C -42.0°F-41.1°C 1% 3.0 mph S4.8 kmh S 12.0 mph19.3 kmh 29.34 in993.6 mb 0.00 in0.0 mm 0.00 in0.0 mm 0.00 in0.0 mm
03:10 AM 58.8°F14.9°C -42.0°F-41.1°C 1% 3.0 mph SSW4.8 kmh SSW 18.0 mph29.0 kmh 29.34 in993.6 mb 0.00 in0.0 mm 0.00 in0.0 mm 0.00 in0.0 mm
03:15 AM 58.8°F14.9°C -42.0°F-41.1°C 1% 3.0 mph SSW4.8 kmh SSW 12.0 mph19.3 kmh 29.34 in993.6 mb 0.00 in0.0 mm 0.00 in0.0 mm 0.00 in0.0 mm
03:20 AM 58.9°F14.9°C -42.0°F-41.1°C 1% 3.0 mph S4.8 kmh S 9.0 mph14.5 kmh 29.34 in993.6 mb 0.00 in0.0 mm 0.00 in0.0 mm 0.00 in0.0 mm
03:25 AM 58.9°F14.9°C -42.0°F-41.1°C 1% 4.0 mph S6.4 kmh S 10.0 mph16.1 kmh 29.34 in993.6 mb 0.00 in0.0 mm 0.00 in0.0 mm 0.00 in0.0 mm
03:30 AM 58.7°F14.8°C -42.1°F-41.2°C 1% 4.0 mph S6.4 kmh S 10.0 mph16.1 kmh 29.34 in993.6 mb 0.00 in0.0 mm 0.00 in0.0 mm 0.00 in0.0 mm
03:35 AM 58.7°F14.8°C -42.1°F-41.2°C 1% 4.0 mph S6.4 kmh S 16.0 mph25.7 kmh 29.34 in993.6 mb 0.00 in0.0 mm 0.00 in0.0 mm 0.00 in0.0 mm
03:40 AM 58.7°F14.8°C -42.1°F-41.2°C 1% 4.0 mph S6.4 kmh S 16.0 mph25.7 kmh 29.34 in993.6 mb 0.00 in0.0 mm 0.00 in0.0 mm 0.00 in0.0 mm
03:45 AM 58.7°F14.8°C -42.1°F-41.2°C 1% 3.0 mph S4.8 kmh S 11.0 mph17.7 kmh 29.34 in993.6 mb 0.00 in0.0 mm 0.00 in0.0 mm 0.00 in0.0 mm
03:50 AM 58.7°F14.8°C -42.1°F-41.2°C 1% 2.0 mph S3.2 kmh S 7.0 mph11.3 kmh 29.34 in993.6 mb 0.00 in0.0 mm 0.00 in0.0 mm 0.00 in0.0 mm
03:55 AM 58.7°F14.8°C -42.1°F-41.2°C 1% 2.0 mph S3.2 kmh S 8.0 mph12.9 kmh 29.34 in993.6 mb 0.00 in0.0 mm 0.00 in0.0 mm 0.00 in0.0 mm
04:00 AM 58.7°F14.8°C -42.1°F-41.2°C 1% 2.0 mph S3.2 kmh S 8.0 mph12.9 kmh 29.34 in993.6 mb 0.00 in0.0 mm 0.00 in0.0 mm 0.00 in0.0 mm
04:05 AM 58.7°F14.8°C -42.1°F-41.2°C 1% 3.0 mph S4.8 kmh S 8.0 mph12.9 kmh 29.34 in993.6 mb 0.00 in0.0 mm 0.00 in0.0 mm 0.00 in0.0 mm
04:10 AM 58.7°F14.8°C -42.1°F-41.2°C 1% 4.0 mph S6.4 kmh S 13.0 mph20.9 kmh 29.34 in993.6 mb 0.00 in0.0 mm 0.00 in0.0 mm 0.00 in0.0 mm
04:15 AM 58.6°F14.8°C -42.2°F-41.2°C 1% 5.0 mph S8.0 kmh S 13.0 mph20.9 kmh 29.34 in993.6 mb 0.00 in0.0 mm 0.00 in0.0 mm 0.00 in0.0 mm
04:20 AM 58.6°F14.8°C -42.2°F-41.2°C 1% 5.0 mph S8.0 kmh S 13.0 mph20.9 kmh 29.34 in993.6 mb 0.00 in0.0 mm 0.00 in0.0 mm 0.00 in0.0 mm
04:25 AM 58.6°F14.8°C -42.2°F-41.2°C 1% 4.0 mph S6.4 kmh S 13.0 mph20.9 kmh 29.34 in993.6 mb 0.00 in0.0 mm 0.00 in0.0 mm 0.00 in0.0 mm
04:30 AM 58.6°F14.8°C -42.2°F-41.2°C 1% 3.0 mph S4.8 kmh S 9.0 mph14.5 kmh 29.34 in993.6 mb 0.00 in0.0 mm 0.00 in0.0 mm 0.00 in0.0 mm
04:35 AM 58.5°F14.7°C -42.2°F-41.2°C 1% 4.0 mph S6.4 kmh S 9.0 mph14.5 kmh 29.34 in993.6 mb 0.00 in0.0 mm 0.00 in0.0 mm 0.00 in0.0 mm
04:40 AM 58.5°F14.7°C -42.2°F-41.2°C 1% 3.0 mph S4.8 kmh S 7.0 mph11.3 kmh 29.34 in993.6 mb 0.00 in0.0 mm 0.00 in0.0 mm 0.00 in0.0 mm
04:45 AM 58.6°F14.8°C -42.2°F-41.2°C 1% 2.0 mph S3.2 kmh S 10.0 mph16.1 kmh 29.34 in993.6 mb 0.00 in0.0 mm 0.00 in0.0 mm 0.00 in0.0 mm
04:50 AM 58.5°F14.7°C -42.2°F-41.2°C 1% 3.0 mph SSW4.8 kmh SSW 12.0 mph19.3 kmh 29.34 in993.6 mb 0.00 in0.0 mm 0.00 in0.0 mm 0.00 in0.0 mm
04:55 AM 58.4°F14.7°C -42.3°F-41.3°C 1% 5.0 mph SSW8.0 kmh SSW 13.0 mph20.9 kmh 29.34 in993.6 mb 0.00 in0.0 mm 0.00 in0.0 mm 0.00 in0.0 mm
05:00 AM 58.2°F14.6°C -42.4°F-41.3°C 1% 4.0 mph SSW6.4 kmh SSW 13.0 mph20.9 kmh 29.34 in993.6 mb 0.00 in0.0 mm 0.00 in0.0 mm 0.00 in0.0 mm
05:05 AM 58.2°F14.6°C -42.4°F-41.3°C 1% 4.0 mph SW6.4 kmh SW 14.0 mph22.5 kmh 29.34 in993.6 mb 0.00 in0.0 mm 0.00 in0.0 mm 0.00 in0.0 mm
05:10 AM 58.3°F14.6°C -42.3°F-41.3°C 1% 5.0 mph SSW8.0 kmh SSW 15.0 mph24.1 kmh 29.34 in993.6 mb 0.00 in0.0 mm 0.00 in0.0 mm 0.00 in0.0 mm
05:15 AM 58.2°F14.6°C -42.4°F-41.3°C 1% 4.0 mph S6.4 kmh S 9.0 mph14.5 kmh 29.34 in993.6 mb 0.00 in0.0 mm 0.00 in0.0 mm 0.00 in0.0 mm
05:20 AM 58.1°F14.5°C -42.5°F-41.4°C 1% 4.0 mph S6.4 kmh S 14.0 mph22.5 kmh 29.34 in993.6 mb 0.00 in0.0 mm 0.00 in0.0 mm 0.00 in0.0 mm
05:25 AM 58.1°F14.5°C -42.5°F-41.4°C 1% 4.0 mph SSW6.4 kmh SSW 14.0 mph22.5 kmh 29.34 in993.6 mb 0.00 in0.0 mm 0.00 in0.0 mm 0.00 in0.0 mm
05:30 AM 58.1°F14.5°C -42.5°F-41.4°C 1% 3.0 mph S4.8 kmh S 10.0 mph16.1 kmh 29.34 in993.6 mb 0.00 in0.0 mm 0.00 in0.0 mm 0.00 in0.0 mm
05:35 AM 58.1°F14.5°C -42.5°F-41.4°C 1% 3.0 mph S4.8 kmh S 12.0 mph19.3 kmh 29.34 in993.6 mb 0.00 in0.0 mm 0.00 in0.0 mm 0.00 in0.0 mm
05:40 AM 58.1°F14.5°C -42.5°F-41.4°C 1% 3.0 mph S4.8 kmh S 11.0 mph17.7 kmh 29.34 in993.6 mb 0.00 in0.0 mm 0.00 in0.0 mm 0.00 in0.0 mm
05:45 AM 58.1°F14.5°C -42.5°F-41.4°C 1% 2.0 mph S3.2 kmh S 11.0 mph17.7 kmh 29.34 in993.6 mb 0.00 in0.0 mm 0.00 in0.0 mm 0.00 in0.0 mm
05:50 AM 58.1°F14.5°C -42.5°F-41.4°C 1% 1.0 mph S1.6 kmh S 7.0 mph11.3 kmh 29.34 in993.6 mb 0.00 in0.0 mm 0.00 in0.0 mm 0.00 in0.0 mm
05:55 AM 58.1°F14.5°C -42.5°F-41.4°C 1% 3.0 mph SSW4.8 kmh SSW 10.0 mph16.1 kmh 29.34 in993.6 mb 0.00 in0.0 mm 0.00 in0.0 mm 0.00 in0.0 mm
06:00 AM 58.1°F14.5°C -42.5°F-41.4°C 1% 5.0 mph S8.0 kmh S 10.0 mph16.1 kmh 29.34 in993.6 mb 0.00 in0.0 mm 0.00 in0.0 mm 0.00 in0.0 mm
06:05 AM 58.1°F14.5°C -42.5°F-41.4°C 1% 4.0 mph S6.4 kmh S 10.0 mph16.1 kmh 29.34 in993.6 mb 0.00 in0.0 mm 0.00 in0.0 mm 0.00 in0.0 mm
06:10 AM 58.0°F14.4°C -42.5°F-41.4°C 1% 3.0 mph SSW4.8 kmh SSW 10.0 mph16.1 kmh 29.34 in993.6 mb 0.00 in0.0 mm 0.00 in0.0 mm 0.00 in0.0 mm
06:15 AM 58.0°F14.4°C -42.5°F-41.4°C 1% 3.0 mph SSW4.8 kmh SSW 10.0 mph16.1 kmh 29.34 in993.6 mb 0.00 in0.0 mm 0.00 in0.0 mm 0.00 in0.0 mm
06:20 AM 58.0°F14.4°C -42.5°F-41.4°C 1% 3.0 mph SSW4.8 kmh SSW 12.0 mph19.3 kmh 29.34 in993.6 mb 0.00 in0.0 mm 0.00 in0.0 mm 0.00 in0.0 mm
06:25 AM 57.9°F14.4°C -42.6°F-41.4°C 1% 3.0 mph SSW4.8 kmh SSW 12.0 mph19.3 kmh 29.34 in993.6 mb 0.00 in0.0 mm 0.00 in0.0 mm 0.00 in0.0 mm
06:30 AM 57.8°F14.3°C -42.7°F-41.5°C 1% 2.0 mph S3.2 kmh S 8.0 mph12.9 kmh 29.34 in993.6 mb 0.00 in0.0 mm 0.00 in0.0 mm 0.00 in0.0 mm
06:35 AM 57.9°F14.4°C -42.6°F-41.4°C 1% 1.0 mph S1.6 kmh S 5.0 mph8.0 kmh 29.34 in993.6 mb 0.00 in0.0 mm 0.00 in0.0 mm 0.00 in0.0 mm
06:40 AM 57.9°F14.4°C -42.6°F-41.4°C 1% 1.0 mph SSW1.6 kmh SSW 4.0 mph6.4 kmh 29.34 in993.6 mb 0.00 in0.0 mm 0.00 in0.0 mm 0.00 in0.0 mm
06:45 AM 58.0°F14.4°C -42.5°F-41.4°C 1% 1.0 mph SSW1.6 kmh SSW 5.0 mph8.0 kmh 29.34 in993.6 mb 0.00 in0.0 mm 0.00 in0.0 mm 0.00 in0.0 mm
06:50 AM 58.0°F14.4°C -42.5°F-41.4°C 1% 2.0 mph S3.2 kmh S 6.0 mph9.7 kmh 29.34 in993.6 mb 0.00 in0.0 mm 0.00 in0.0 mm 0.00 in0.0 mm
06:55 AM 58.0°F14.4°C -42.5°F-41.4°C 1% 3.0 mph S4.8 kmh S 8.0 mph12.9 kmh 29.34 in993.6 mb 0.00 in0.0 mm 0.00 in0.0 mm 0.00 in0.0 mm
07:00 AM 58.0°F14.4°C -42.5°F-41.4°C 1% 3.0 mph S4.8 kmh S 10.0 mph16.1 kmh 29.34 in993.6 mb 0.00 in0.0 mm 0.00 in0.0 mm 0.00 in0.0 mm
07:05 AM 57.8°F14.3°C -42.7°F-41.5°C 1% 3.0 mph S4.8 kmh S 11.0 mph17.7 kmh 29.34 in993.6 mb 0.00 in0.0 mm 0.00 in0.0 mm 0.00 in0.0 mm
07:10 AM 57.8°F14.3°C -42.7°F-41.5°C 1% 3.0 mph S4.8 kmh S 11.0 mph17.7 kmh 29.34 in993.6 mb 0.00 in0.0 mm 0.00 in0.0 mm 0.00 in0.0 mm
07:15 AM 57.8°F14.3°C -42.7°F-41.5°C 1% 4.0 mph SSW6.4 kmh SSW 12.0 mph19.3 kmh 29.34 in993.6 mb 0.00 in0.0 mm 0.00 in0.0 mm 0.00 in0.0 mm
07:20 AM 57.8°F14.3°C -42.7°F-41.5°C 1% 3.0 mph SW4.8 kmh SW 12.0 mph19.3 kmh 29.34 in993.6 mb 0.00 in0.0 mm 0.00 in0.0 mm 0.00 in0.0 mm
07:25 AM 57.9°F14.4°C -42.6°F-41.4°C 1% 2.0 mph WSW3.2 kmh WSW 6.0 mph9.7 kmh 29.34 in993.6 mb 0.00 in0.0 mm 0.00 in0.0 mm 0.00 in0.0 mm
07:30 AM 58.0°F14.4°C -42.5°F-41.4°C 1% 1.0 mph SW1.6 kmh SW 8.0 mph12.9 kmh 29.34 in993.6 mb 0.00 in0.0 mm 0.00 in0.0 mm 0.00 in0.0 mm
07:35 AM 58.0°F14.4°C -42.5°F-41.4°C 1% 1.0 mph SSW1.6 kmh SSW 9.0 mph14.5 kmh 29.34 in993.6 mb 0.00 in0.0 mm 0.00 in0.0 mm 0.00 in0.0 mm
07:40 AM 58.0°F14.4°C -42.5°F-41.4°C 1% 2.0 mph SW3.2 kmh SW 9.0 mph14.5 kmh 29.34 in993.6 mb 0.00 in0.0 mm 0.00 in0.0 mm 0.00 in0.0 mm
07:45 AM 58.0°F14.4°C -42.5°F-41.4°C 1% 2.0 mph SSW3.2 kmh SSW 8.0 mph12.9 kmh 29.34 in993.6 mb 0.00 in0.0 mm 0.00 in0.0 mm 0.00 in0.0 mm
07:50 AM 57.8°F14.3°C -42.7°F-41.5°C 1% 3.0 mph SSW4.8 kmh SSW 8.0 mph12.9 kmh 29.34 in993.6 mb 0.00 in0.0 mm 0.00 in0.0 mm 0.00 in0.0 mm
07:55 AM 58.0°F14.4°C -42.5°F-41.4°C 1% 3.0 mph S4.8 kmh S 8.0 mph12.9 kmh 29.34 in993.6 mb 0.00 in0.0 mm 0.00 in0.0 mm 0.00 in0.0 mm
08:00 AM 58.0°F14.4°C -42.5°F-41.4°C 1% 3.0 mph S4.8 kmh S 12.0 mph19.3 kmh 29.34 in993.6 mb 0.00 in0.0 mm 0.00 in0.0 mm 0.00 in0.0 mm
08:05 AM 57.8°F14.3°C -42.7°F-41.5°C 1% 4.0 mph S6.4 kmh S 13.0 mph20.9 kmh 29.34 in993.6 mb 0.00 in0.0 mm 0.00 in0.0 mm 0.00 in0.0 mm
08:10 AM 57.9°F14.4°C -42.6°F-41.4°C 1% 5.0 mph S8.0 kmh S 13.0 mph20.9 kmh 29.34 in993.6 mb 0.00 in0.0 mm 0.00 in0.0 mm 0.00 in0.0 mm
08:15 AM 57.8°F14.3°C -42.7°F-41.5°C 1% 4.0 mph SSW6.4 kmh SSW 10.0 mph16.1 kmh 29.34 in993.6 mb 0.00 in0.0 mm 0.00 in0.0 mm 0.00 in0.0 mm
08:20 AM 57.5°F14.2°C -42.8°F-41.6°C 1% 3.0 mph SSW4.8 kmh SSW 14.0 mph22.5 kmh 29.34 in993.6 mb 0.00 in0.0 mm 0.00 in0.0 mm 0.00 in0.0 mm
08:25 AM 57.5°F14.2°C -42.8°F-41.6°C 1% 2.0 mph S3.2 kmh S 14.0 mph22.5 kmh 29.34 in993.6 mb 0.00 in0.0 mm 0.00 in0.0 mm 0.00 in0.0 mm
08:35 AM 58.7°F14.8°C -42.1°F-41.2°C 1% 3.0 mph SSW4.8 kmh SSW 7.0 mph11.3 kmh 29.34 in993.6 mb 0.00 in0.0 mm 0.00 in0.0 mm 0.00 in0.0 mm
08:40 AM 58.4°F14.7°C -42.3°F-41.3°C 1% 3.0 mph SSW4.8 kmh SSW 7.0 mph11.3 kmh 29.34 in993.6 mb 0.00 in0.0 mm 0.00 in0.0 mm 0.00 in0.0 mm
08:45 AM 58.4°F14.7°C -42.3°F-41.3°C 1% 1.0 mph SW1.6 kmh SW 5.0 mph8.0 kmh 29.34 in993.6 mb 0.00 in0.0 mm 0.00 in0.0 mm 0.00 in0.0 mm
08:50 AM 57.8°F14.3°C -42.7°F-41.5°C 1% 1.0 mph SW1.6 kmh SW 12.0 mph19.3 kmh 29.34 in993.6 mb 0.00 in0.0 mm 0.00 in0.0 mm 0.00 in0.0 mm
08:55 AM 57.7°F14.3°C -42.7°F-41.5°C 1% 2.0 mph SW3.2 kmh SW 12.0 mph19.3 kmh 29.34 in993.6 mb 0.00 in0.0 mm 0.00 in0.0 mm 0.00 in0.0 mm
09:00 AM 57.6°F14.2°C -42.8°F-41.6°C 1% 2.0 mph SW3.2 kmh SW 8.0 mph12.9 kmh 29.34 in993.6 mb 0.00 in0.0 mm 0.00 in0.0 mm 0.00 in0.0 mm
09:05 AM 57.9°F14.4°C -42.6°F-41.4°C 1% 2.0 mph SW3.2 kmh SW 8.0 mph12.9 kmh 29.34 in993.6 mb 0.00 in0.0 mm 0.00 in0.0 mm 0.00 in0.0 mm
09:10 AM 58.6°F14.8°C -42.2°F-41.2°C 1% 2.0 mph SW3.2 kmh SW 8.0 mph12.9 kmh 29.34 in993.6 mb 0.00 in0.0 mm 0.00 in0.0 mm 0.00 in0.0 mm
09:15 AM 58.4°F14.7°C -42.3°F-41.3°C 1% 1.0 mph SSW1.6 kmh SSW 8.0 mph12.9 kmh 29.34 in993.6 mb 0.00 in0.0 mm 0.00 in0.0 mm 0.00 in0.0 mm
09:20 AM 58.3°F14.6°C -42.3°F-41.3°C 1% 1.0 mph SW1.6 kmh SW 6.0 mph9.7 kmh 29.34 in993.6 mb 0.00 in0.0 mm 0.00 in0.0 mm 0.00 in0.0 mm
09:25 AM 58.2°F14.6°C -42.4°F-41.3°C 1% 1.0 mph SW1.6 kmh SW 3.0 mph4.8 kmh 29.34 in993.6 mb 0.00 in0.0 mm 0.00 in0.0 mm 0.00 in0.0 mm
09:30 AM 58.9°F14.9°C -42.0°F-41.1°C 1% 1.0 mph WSW1.6 kmh WSW 3.0 mph4.8 kmh 29.34 in993.6 mb 0.00 in0.0 mm 0.00 in0.0 mm 0.00 in0.0 mm
09:35 AM 58.9°F14.9°C -42.0°F-41.1°C 1% 1.0 mph SW1.6 kmh SW 8.0 mph12.9 kmh 29.34 in993.6 mb 0.00 in0.0 mm 0.00 in0.0 mm 0.00 in0.0 mm
09:40 AM 59.5°F15.3°C -41.6°F-40.9°C 1% 1.0 mph SW1.6 kmh SW 8.0 mph12.9 kmh 29.34 in993.6 mb 0.00 in0.0 mm 0.00 in0.0 mm 0.00 in0.0 mm
09:45 AM 59.7°F15.4°C -41.5°F-40.8°C 1% 1.0 mph SSW1.6 kmh SSW 7.0 mph11.3 kmh 29.34 in993.6 mb 0.00 in0.0 mm 0.00 in0.0 mm 0.00 in0.0 mm
10:00 AM 58.3°F14.6°C -42.3°F-41.3°C 1% 2.0 mph SSW3.2 kmh SSW 6.0 mph9.7 kmh 29.34 in993.6 mb 0.00 in0.0 mm 0.00 in0.0 mm 0.00 in0.0 mm
10:05 AM 58.1°F14.5°C -42.5°F-41.4°C 1% 2.0 mph SW3.2 kmh SW 7.0 mph11.3 kmh 29.34 in993.6 mb 0.00 in0.0 mm 0.00 in0.0 mm 0.00 in0.0 mm
10:10 AM 57.6°F14.2°C -42.8°F-41.6°C 1% 2.0 mph SW3.2 kmh SW 8.0 mph12.9 kmh 29.34 in993.6 mb 0.00 in0.0 mm 0.00 in0.0 mm 0.00 in0.0 mm
10:15 AM 58.1°F14.5°C -42.5°F-41.4°C 1% 3.0 mph SW4.8 kmh SW 8.0 mph12.9 kmh 29.34 in993.6 mb 0.00 in0.0 mm 0.00 in0.0 mm 0.00 in0.0 mm
10:20 AM 58.7°F14.8°C -42.1°F-41.2°C 1% 2.0 mph SSW3.2 kmh SSW 8.0 mph12.9 kmh 29.34 in993.6 mb 0.00 in0.0 mm 0.00 in0.0 mm 0.00 in0.0 mm
10:25 AM 58.3°F14.6°C -42.3°F-41.3°C 1% 2.0 mph SW3.2 kmh SW 9.0 mph14.5 kmh 29.34 in993.6 mb 0.00 in0.0 mm 0.00 in0.0 mm 0.00 in0.0 mm
10:30 AM 59.0°F15.0°C -41.9°F-41.1°C 1% 2.0 mph SW3.2 kmh SW 9.0 mph14.5 kmh 29.34 in993.6 mb 0.00 in0.0 mm 0.00 in0.0 mm 0.00 in0.0 mm
10:35 AM 59.4°F15.2°C -41.7°F-40.9°C 1% 2.0 mph SW3.2 kmh SW 9.0 mph14.5 kmh 29.34 in993.6 mb 0.00 in0.0 mm 0.00 in0.0 mm 0.00 in0.0 mm
10:40 AM 59.4°F15.2°C -41.7°F-40.9°C 1% 3.0 mph SW4.8 kmh SW 12.0 mph19.3 kmh 29.34 in993.6 mb 0.00 in0.0 mm 0.00 in0.0 mm 0.00 in0.0 mm
10:45 AM 58.7°F14.8°C -42.1°F-41.2°C 1% 3.0 mph SW4.8 kmh SW 7.0 mph11.3 kmh 29.34 in993.6 mb 0.00 in0.0 mm 0.00 in0.0 mm 0.00 in0.0 mm
10:50 AM 59.0°F15.0°C -41.9°F-41.1°C 1% 2.0 mph SW3.2 kmh SW 11.0 mph17.7 kmh 29.34 in993.6 mb 0.00 in0.0 mm 0.00 in0.0 mm 0.00 in0.0 mm
10:55 AM 59.1°F15.1°C -41.9°F-41.1°C 1% 3.0 mph SSW4.8 kmh SSW 11.0 mph17.7 kmh 29.34 in993.6 mb 0.00 in0.0 mm 0.00 in0.0 mm 0.00 in0.0 mm
11:00 AM 58.9°F14.9°C -42.0°F-41.1°C 1% 4.0 mph SSW6.4 kmh SSW 10.0 mph16.1 kmh 29.34 in993.6 mb 0.00 in0.0 mm 0.00 in0.0 mm 0.00 in0.0 mm
11:05 AM 59.0°F15.0°C -41.9°F-41.1°C 1% 2.0 mph SSW3.2 kmh SSW 10.0 mph16.1 kmh 29.34 in993.6 mb 0.00 in0.0 mm 0.00 in0.0 mm 0.00 in0.0 mm
11:10 AM 58.6°F14.8°C -42.2°F-41.2°C 1% 2.0 mph SW3.2 kmh SW 10.0 mph16.1 kmh 29.34 in993.6 mb 0.00 in0.0 mm 0.00 in0.0 mm 0.00 in0.0 mm
11:15 AM 58.6°F14.8°C -42.2°F-41.2°C 1% 3.0 mph SW4.8 kmh SW 10.0 mph16.1 kmh 29.34 in993.6 mb 0.00 in0.0 mm 0.00 in0.0 mm 0.00 in0.0 mm
11:20 AM 58.4°F14.7°C -42.3°F-41.3°C 1% 3.0 mph SW4.8 kmh SW 9.0 mph14.5 kmh 29.34 in993.6 mb 0.00 in0.0 mm 0.00 in0.0 mm 0.00 in0.0 mm
11:25 AM 58.2°F14.6°C -42.4°F-41.3°C 1% 3.0 mph S4.8 kmh S 8.0 mph12.9 kmh 29.34 in993.6 mb 0.00 in0.0 mm 0.00 in0.0 mm 0.00 in0.0 mm
11:30 AM 58.4°F14.7°C -42.3°F-41.3°C 1% 3.0 mph SSW4.8 kmh SSW 8.0 mph12.9 kmh 29.34 in993.6 mb 0.00 in0.0 mm 0.00 in0.0 mm 0.00 in0.0 mm
11:35 AM 58.7°F14.8°C -42.1°F-41.2°C 1% 3.0 mph SSW4.8 kmh SSW 8.0 mph12.9 kmh 29.34 in993.6 mb 0.00 in0.0 mm 0.00 in0.0 mm 0.00 in0.0 mm
11:40 AM 59.1°F15.1°C -41.9°F-41.1°C 1% 2.0 mph SSW3.2 kmh SSW 6.0 mph9.7 kmh 29.34 in993.6 mb 0.00 in0.0 mm 0.00 in0.0 mm 0.00 in0.0 mm
11:45 AM 59.4°F15.2°C -41.7°F-40.9°C 1% 2.0 mph SSW3.2 kmh SSW 10.0 mph16.1 kmh 29.34 in993.6 mb 0.00 in0.0 mm 0.00 in0.0 mm 0.00 in0.0 mm
11:50 AM 59.6°F15.3°C -41.6°F-40.9°C 1% 3.0 mph SSW4.8 kmh SSW 10.0 mph16.1 kmh 29.34 in993.6 mb 0.00 in0.0 mm 0.00 in0.0 mm 0.00 in0.0 mm
11:55 AM 59.6°F15.3°C -41.6°F-40.9°C 1% 3.0 mph SSW4.8 kmh SSW 8.0 mph12.9 kmh 29.34 in993.6 mb 0.00 in0.0 mm 0.00 in0.0 mm 0.00 in0.0 mm
12:00 PM 59.4°F15.2°C -41.7°F-40.9°C 1% 3.0 mph SSW4.8 kmh SSW 10.0 mph16.1 kmh 29.34 in993.6 mb 0.00 in0.0 mm 0.00 in0.0 mm 0.00 in0.0 mm
12:05 PM 59.1°F15.1°C -41.9°F-41.1°C 1% 3.0 mph SSW4.8 kmh SSW 14.0 mph22.5 kmh 29.34 in993.6 mb 0.00 in0.0 mm 0.00 in0.0 mm 0.00 in0.0 mm
12:10 PM 59.0°F15.0°C -41.9°F-41.1°C 1% 3.0 mph SSW4.8 kmh SSW 14.0 mph22.5 kmh 29.34 in993.6 mb 0.00 in0.0 mm 0.00 in0.0 mm 0.00 in0.0 mm
12:15 PM 59.0°F15.0°C -41.9°F-41.1°C 1% 2.0 mph S3.2 kmh S 6.0 mph9.7 kmh 29.34 in993.6 mb 0.00 in0.0 mm 0.00 in0.0 mm 0.00 in0.0 mm
12:20 PM 58.9°F14.9°C -42.0°F-41.1°C 1% 2.0 mph S3.2 kmh S 7.0 mph11.3 kmh 29.34 in993.6 mb 0.00 in0.0 mm 0.00 in0.0 mm 0.00 in0.0 mm
12:25 PM 59.4°F15.2°C -41.7°F-40.9°C 1% 3.0 mph S4.8 kmh S 9.0 mph14.5 kmh 29.34 in993.6 mb 0.00 in0.0 mm 0.00 in0.0 mm 0.00 in0.0 mm
12:30 PM 59.5°F15.3°C -41.6°F-40.9°C 1% 3.0 mph SSW4.8 kmh SSW 12.0 mph19.3 kmh 29.34 in993.6 mb 0.00 in0.0 mm 0.00 in0.0 mm 0.00 in0.0 mm
12:35 PM 59.6°F15.3°C -41.6°F-40.9°C 1% 3.0 mph S4.8 kmh S 12.0 mph19.3 kmh 29.34 in993.6 mb 0.00 in0.0 mm 0.00 in0.0 mm 0.00 in0.0 mm
12:40 PM 59.5°F15.3°C -41.6°F-40.9°C 1% 3.0 mph S4.8 kmh S 9.0 mph14.5 kmh 29.34 in993.6 mb 0.00 in0.0 mm 0.00 in0.0 mm 0.00 in0.0 mm
12:45 PM 59.4°F15.2°C -41.7°F-40.9°C 1% 2.0 mph S3.2 kmh S 9.0 mph14.5 kmh 29.34 in993.6 mb 0.00 in0.0 mm 0.00 in0.0 mm 0.00 in0.0 mm
12:50 PM 59.2°F15.1°C -41.8°F-41.0°C 1% 3.0 mph S4.8 kmh S 7.0 mph11.3 kmh 29.34 in993.6 mb 0.00 in0.0 mm 0.00 in0.0 mm 0.00 in0.0 mm
12:55 PM 59.3°F15.2°C -41.7°F-40.9°C 1% 2.0 mph SSW3.2 kmh SSW 8.0 mph12.9 kmh 29.34 in993.6 mb 0.00 in0.0 mm 0.00 in0.0 mm 0.00 in0.0 mm
01:00 PM 59.3°F15.2°C -41.7°F-40.9°C 1% 3.0 mph SSW4.8 kmh SSW 6.0 mph9.7 kmh 29.34 in993.6 mb 0.00 in0.0 mm 0.00 in0.0 mm 0.00 in0.0 mm
01:05 PM 59.6°F15.3°C -41.6°F-40.9°C 1% 3.0 mph SSW4.8 kmh SSW 9.0 mph14.5 kmh 29.34 in993.6 mb 0.00 in0.0 mm 0.00 in0.0 mm 0.00 in0.0 mm
01:10 PM 60.2°F15.7°C -41.2°F-40.7°C 1% 3.0 mph WSW4.8 kmh WSW 10.0 mph16.1 kmh 29.34 in993.6 mb 0.00 in0.0 mm 0.00 in0.0 mm 0.00 in0.0 mm
01:15 PM 60.4°F15.8°C -41.1°F-40.6°C 1% 3.0 mph W4.8 kmh W 11.0 mph17.7 kmh 29.34 in993.6 mb 0.00 in0.0 mm 0.00 in0.0 mm 0.00 in0.0 mm
01:20 PM 60.2°F15.7°C -41.2°F-40.7°C 1% 4.0 mph W6.4 kmh W 11.0 mph17.7 kmh 29.34 in993.6 mb 0.00 in0.0 mm 0.00 in0.0 mm 0.00 in0.0 mm
01:25 PM 60.2°F15.7°C -41.2°F-40.7°C 1% 4.0 mph WNW6.4 kmh WNW 11.0 mph17.7 kmh 29.34 in993.6 mb 0.00 in0.0 mm 0.00 in0.0 mm 0.00 in0.0 mm
01:30 PM 60.0°F15.6°C -41.3°F-40.7°C 1% 4.0 mph WNW6.4 kmh WNW 11.0 mph17.7 kmh 29.34 in993.6 mb 0.00 in0.0 mm 0.00 in0.0 mm 0.00 in0.0 mm
01:35 PM 60.3°F15.7°C -41.1°F-40.6°C 1% 3.0 mph WNW4.8 kmh WNW 10.0 mph16.1 kmh 29.34 in993.6 mb 0.00 in0.0 mm 0.00 in0.0 mm 0.00 in0.0 mm
01:40 PM 60.5°F15.8°C -41.0°F-40.6°C 1% 2.0 mph W3.2 kmh W 8.0 mph12.9 kmh 29.34 in993.6 mb 0.00 in0.0 mm 0.00 in0.0 mm 0.00 in0.0 mm
01:45 PM 60.1°F15.6°C -41.2°F-40.7°C 1% 2.0 mph WNW3.2 kmh WNW 9.0 mph14.5 kmh 29.34 in993.6 mb 0.00 in0.0 mm 0.00 in0.0 mm 0.00 in0.0 mm
01:50 PM 60.4°F15.8°C -41.1°F-40.6°C 1% 3.0 mph WNW4.8 kmh WNW 11.0 mph17.7 kmh 29.34 in993.6 mb 0.00 in0.0 mm 0.00 in0.0 mm 0.00 in0.0 mm
01:55 PM 60.2°F15.7°C -41.2°F-40.7°C 1% 5.0 mph WNW8.0 kmh WNW 17.0 mph27.4 kmh 29.34 in993.6 mb 0.00 in0.0 mm 0.00 in0.0 mm 0.00 in0.0 mm
02:00 PM 60.3°F15.7°C -41.1°F-40.6°C 1% 7.0 mph WNW11.3 kmh WNW 17.0 mph27.4 kmh 29.34 in993.6 mb 0.00 in0.0 mm 0.00 in0.0 mm 0.00 in0.0 mm
02:20 PM 61.0°F16.1°C -40.7°F-40.4°C 1% 5.0 mph W8.0 kmh W 16.0 mph25.7 kmh 29.34 in993.6 mb 0.00 in0.0 mm 0.00 in0.0 mm 0.00 in0.0 mm
02:30 PM 61.5°F16.4°C -40.4°F-40.2°C 1% 5.0 mph WNW8.0 kmh WNW 15.0 mph24.1 kmh 29.34 in993.6 mb 0.00 in0.0 mm 0.00 in0.0 mm 0.00 in0.0 mm
02:35 PM 61.5°F16.4°C -40.4°F-40.2°C 1% 5.0 mph WNW8.0 kmh WNW 12.0 mph19.3 kmh 29.34 in993.6 mb 0.00 in0.0 mm 0.00 in0.0 mm 0.00 in0.0 mm
02:40 PM 61.3°F16.3°C -40.5°F-40.3°C 1% 5.0 mph NW8.0 kmh NW 12.0 mph19.3 kmh 29.34 in993.6 mb 0.00 in0.0 mm 0.00 in0.0 mm 0.00 in0.0 mm
02:45 PM 61.7°F16.5°C -40.3°F-40.2°C 1% 3.0 mph NW4.8 kmh NW 12.0 mph19.3 kmh 29.34 in993.6 mb 0.00 in0.0 mm 0.00 in0.0 mm 0.00 in0.0 mm
02:50 PM 61.4°F16.3°C -40.5°F-40.3°C 1% 5.0 mph NW8.0 kmh NW 13.0 mph20.9 kmh 29.34 in993.6 mb 0.00 in0.0 mm 0.00 in0.0 mm 0.00 in0.0 mm
03:10 PM 60.9°F16.1°C -40.8°F-40.4°C 1% 4.0 mph WNW6.4 kmh WNW 8.0 mph12.9 kmh 29.34 in993.6 mb 0.00 in0.0 mm 0.00 in0.0 mm 0.00 in0.0 mm
03:15 PM 60.8°F16.0°C -40.8°F-40.4°C 1% 4.0 mph WNW6.4 kmh WNW 16.0 mph25.7 kmh 29.34 in993.6 mb 0.00 in0.0 mm 0.00 in0.0 mm 0.00 in0.0 mm
03:20 PM 60.4°F15.8°C -41.1°F-40.6°C 1% 6.0 mph NW9.7 kmh NW 16.0 mph25.7 kmh 29.34 in993.6 mb 0.00 in0.0 mm 0.00 in0.0 mm 0.00 in0.0 mm
03:30 PM 60.3°F15.7°C -41.1°F-40.6°C 1% 5.0 mph WNW8.0 kmh WNW 11.0 mph17.7 kmh 29.34 in993.6 mb 0.00 in0.0 mm 0.00 in0.0 mm 0.00 in0.0 mm
03:35 PM 60.2°F15.7°C -41.2°F-40.7°C 1% 5.0 mph NW8.0 kmh NW 13.0 mph20.9 kmh 29.34 in993.6 mb 0.00 in0.0 mm 0.00 in0.0 mm 0.00 in0.0 mm
03:50 PM 60.1°F15.6°C -41.2°F-40.7°C 1% 6.0 mph WNW9.7 kmh WNW 12.0 mph19.3 kmh 29.34 in993.6 mb 0.00 in0.0 mm 0.00 in0.0 mm 0.00 in0.0 mm
03:55 PM 59.6°F15.3°C -41.6°F-40.9°C 1% 5.0 mph NW8.0 kmh NW 16.0 mph25.7 kmh 29.34 in993.6 mb 0.00 in0.0 mm 0.00 in0.0 mm 0.00 in0.0 mm
04:00 PM 59.2°F15.1°C -41.8°F-41.0°C 1% 7.0 mph WNW11.3 kmh WNW 19.0 mph30.6 kmh 29.34 in993.6 mb 0.00 in0.0 mm 0.00 in0.0 mm 0.00 in0.0 mm
04:05 PM 58.7°F14.8°C -42.1°F-41.2°C 1% 8.0 mph WNW12.9 kmh WNW 19.0 mph30.6 kmh 29.34 in993.6 mb 0.00 in0.0 mm 0.00 in0.0 mm 0.00 in0.0 mm
04:10 PM 58.4°F14.7°C -42.3°F-41.3°C 1% 7.0 mph WNW11.3 kmh WNW 18.0 mph29.0 kmh 29.34 in993.6 mb 0.00 in0.0 mm 0.00 in0.0 mm 0.00 in0.0 mm
04:15 PM 57.8°F14.3°C -42.7°F-41.5°C 1% 8.0 mph WNW12.9 kmh WNW 19.0 mph30.6 kmh 29.34 in993.6 mb 0.00 in0.0 mm 0.00 in0.0 mm 0.00 in0.0 mm
04:20 PM 57.8°F14.3°C -42.7°F-41.5°C 1% 8.0 mph WNW12.9 kmh WNW 19.0 mph30.6 kmh 29.34 in993.6 mb 0.00 in0.0 mm 0.00 in0.0 mm 0.00 in0.0 mm
04:25 PM 57.7°F14.3°C -42.7°F-41.5°C 1% 7.0 mph WNW11.3 kmh WNW 21.0 mph33.8 kmh 29.34 in993.6 mb 0.00 in0.0 mm 0.00 in0.0 mm 0.00 in0.0 mm
04:30 PM 57.5°F14.2°C -42.8°F-41.6°C 1% 7.0 mph WNW11.3 kmh WNW 21.0 mph33.8 kmh 29.34 in993.6 mb 0.00 in0.0 mm 0.00 in0.0 mm 0.00 in0.0 mm
04:35 PM 57.4°F14.1°C -42.9°F-41.6°C 1% 7.0 mph NW11.3 kmh NW 18.0 mph29.0 kmh 29.34 in993.6 mb 0.00 in0.0 mm 0.00 in0.0 mm 0.00 in0.0 mm
04:40 PM 57.4°F14.1°C -42.9°F-41.6°C 1% 5.0 mph NW8.0 kmh NW 13.0 mph20.9 kmh 29.34 in993.6 mb 0.00 in0.0 mm 0.00 in0.0 mm 0.00 in0.0 mm
04:45 PM 57.3°F14.1°C -43.0°F-41.7°C 1% 4.0 mph NW6.4 kmh NW 14.0 mph22.5 kmh 29.34 in993.6 mb 0.00 in0.0 mm 0.00 in0.0 mm 0.00 in0.0 mm
04:50 PM 57.2°F14.0°C -43.0°F-41.7°C 1% 5.0 mph NW8.0 kmh NW 14.0 mph22.5 kmh 29.34 in993.6 mb 0.00 in0.0 mm 0.00 in0.0 mm 0.00 in0.0 mm
05:00 PM 57.0°F13.9°C -43.1°F-41.7°C 1% 5.0 mph NW8.0 kmh NW 15.0 mph24.1 kmh 29.34 in993.6 mb 0.00 in0.0 mm 0.00 in0.0 mm 0.00 in0.0 mm
05:05 PM 56.8°F13.8°C -43.3°F-41.8°C 1% 4.0 mph NW6.4 kmh NW 11.0 mph17.7 kmh 29.34 in993.6 mb 0.00 in0.0 mm 0.00 in0.0 mm 0.00 in0.0 mm
05:10 PM 56.8°F13.8°C -43.3°F-41.8°C 1% 3.0 mph WNW4.8 kmh WNW 11.0 mph17.7 kmh 29.34 in993.6 mb 0.00 in0.0 mm 0.00 in0.0 mm 0.00 in0.0 mm
05:15 PM 56.6°F13.7°C -43.4°F-41.9°C 1% 3.0 mph WNW4.8 kmh WNW 11.0 mph17.7 kmh 29.34 in993.6 mb 0.00 in0.0 mm 0.00 in0.0 mm 0.00 in0.0 mm
05:20 PM 56.6°F13.7°C -43.4°F-41.9°C 1% 4.0 mph NW6.4 kmh NW 11.0 mph17.7 kmh 29.34 in993.6 mb 0.00 in0.0 mm 0.00 in0.0 mm 0.00 in0.0 mm
05:25 PM 56.5°F13.6°C -43.5°F-41.9°C 1% 4.0 mph WNW6.4 kmh WNW 10.0 mph16.1 kmh 29.34 in993.6 mb 0.00 in0.0 mm 0.00 in0.0 mm 0.00 in0.0 mm
05:30 PM 56.4°F13.6°C -43.5°F-41.9°C 1% 4.0 mph WNW6.4 kmh WNW 10.0 mph16.1 kmh 29.34 in993.6 mb 0.00 in0.0 mm 0.00 in0.0 mm 0.00 in0.0 mm
05:35 PM 56.2°F13.4°C -43.6°F-42.0°C 1% 5.0 mph NW8.0 kmh NW 12.0 mph19.3 kmh 29.34 in993.6 mb 0.00 in0.0 mm 0.00 in0.0 mm 0.00 in0.0 mm
05:40 PM 56.0°F13.3°C -43.8°F-42.1°C 1% 5.0 mph NW8.0 kmh NW 12.0 mph19.3 kmh 29.34 in993.6 mb 0.00 in0.0 mm 0.00 in0.0 mm 0.00 in0.0 mm
05:45 PM 55.9°F13.3°C -43.8°F-42.1°C 1% 5.0 mph NW8.0 kmh NW 18.0 mph29.0 kmh 29.34 in993.6 mb 0.00 in0.0 mm 0.00 in0.0 mm 0.00 in0.0 mm
05:50 PM 55.9°F13.3°C -43.8°F-42.1°C 1% 5.0 mph NW8.0 kmh NW 12.0 mph19.3 kmh 29.34 in993.6 mb 0.00 in0.0 mm 0.00 in0.0 mm 0.00 in0.0 mm
05:55 PM 55.9°F13.3°C -43.8°F-42.1°C 1% 4.0 mph WNW6.4 kmh WNW 12.0 mph19.3 kmh 29.34 in993.6 mb 0.00 in0.0 mm 0.00 in0.0 mm 0.00 in0.0 mm
06:00 PM 55.9°F13.3°C -43.8°F-42.1°C 1% 5.0 mph WNW8.0 kmh WNW 11.0 mph17.7 kmh 29.34 in993.6 mb 0.00 in0.0 mm 0.00 in0.0 mm 0.00 in0.0 mm
06:05 PM 55.9°F13.3°C -43.8°F-42.1°C 1% 4.0 mph W6.4 kmh W 9.0 mph14.5 kmh 29.34 in993.6 mb 0.00 in0.0 mm 0.00 in0.0 mm 0.00 in0.0 mm
06:10 PM 55.9°F13.3°C -43.8°F-42.1°C 1% 4.0 mph WNW6.4 kmh WNW 9.0 mph14.5 kmh 29.34 in993.6 mb 0.00 in0.0 mm 0.00 in0.0 mm 0.00 in0.0 mm
06:15 PM 55.8°F13.2°C -43.9°F-42.2°C 1% 4.0 mph WNW6.4 kmh WNW 11.0 mph17.7 kmh 29.34 in993.6 mb 0.00 in0.0 mm 0.00 in0.0 mm 0.00 in0.0 mm
06:20 PM 55.8°F13.2°C -43.9°F-42.2°C 1% 4.0 mph W6.4 kmh W 11.0 mph17.7 kmh 29.34 in993.6 mb 0.00 in0.0 mm 0.00 in0.0 mm 0.00 in0.0 mm
06:25 PM 55.8°F13.2°C -43.9°F-42.2°C 1% 4.0 mph WNW6.4 kmh WNW 9.0 mph14.5 kmh 29.34 in993.6 mb 0.00 in0.0 mm 0.00 in0.0 mm 0.00 in0.0 mm
06:30 PM 55.8°F13.2°C -43.9°F-42.2°C 1% 4.0 mph WNW6.4 kmh WNW 9.0 mph14.5 kmh 29.34 in993.6 mb 0.00 in0.0 mm 0.00 in0.0 mm 0.00 in0.0 mm
06:35 PM 55.7°F13.2°C -43.9°F-42.2°C 1% 4.0 mph W6.4 kmh W 9.0 mph14.5 kmh 29.34 in993.6 mb 0.00 in0.0 mm 0.00 in0.0 mm 0.00 in0.0 mm
06:40 PM 55.7°F13.2°C -43.9°F-42.2°C 1% 4.0 mph WNW6.4 kmh WNW 8.0 mph12.9 kmh 29.34 in993.6 mb 0.00 in0.0 mm 0.00 in0.0 mm 0.00 in0.0 mm
06:45 PM 55.7°F13.2°C -43.9°F-42.2°C 1% 4.0 mph W6.4 kmh W 9.0 mph14.5 kmh 29.34 in993.6 mb 0.00 in0.0 mm 0.00 in0.0 mm 0.00 in0.0 mm
06:50 PM 55.8°F13.2°C -43.9°F-42.2°C 1% 4.0 mph W6.4 kmh W 9.0 mph14.5 kmh 29.34 in993.6 mb 0.00 in0.0 mm 0.00 in0.0 mm 0.00 in0.0 mm
06:55 PM 55.8°F13.2°C -43.9°F-42.2°C 1% 3.0 mph W4.8 kmh W 7.0 mph11.3 kmh 29.34 in993.6 mb 0.00 in0.0 mm 0.00 in0.0 mm 0.00 in0.0 mm
07:00 PM 55.7°F13.2°C -43.9°F-42.2°C 1% 3.0 mph W4.8 kmh W 8.0 mph12.9 kmh 29.34 in993.6 mb 0.00 in0.0 mm 0.00 in0.0 mm 0.00 in0.0 mm
07:05 PM 55.8°F13.2°C -43.9°F-42.2°C 1% 2.0 mph W3.2 kmh W 7.0 mph11.3 kmh 29.34 in993.6 mb 0.00 in0.0 mm 0.00 in0.0 mm 0.00 in0.0 mm
07:10 PM 55.8°F13.2°C -43.9°F-42.2°C 1% 1.0 mph WNW1.6 kmh WNW 5.0 mph8.0 kmh 29.34 in993.6 mb 0.00 in0.0 mm 0.00 in0.0 mm 0.00 in0.0 mm
07:15 PM 55.8°F13.2°C -43.9°F-42.2°C 1% 2.0 mph W3.2 kmh W 6.0 mph9.7 kmh 29.34 in993.6 mb 0.00 in0.0 mm 0.00 in0.0 mm 0.00 in0.0 mm
07:20 PM 55.8°F13.2°C -43.9°F-42.2°C 1% 2.0 mph W3.2 kmh W 6.0 mph9.7 kmh 29.34 in993.6 mb 0.00 in0.0 mm 0.00 in0.0 mm 0.00 in0.0 mm
07:25 PM 55.8°F13.2°C -43.9°F-42.2°C 1% 1.0 mph W1.6 kmh W 6.0 mph9.7 kmh 29.34 in993.6 mb 0.00 in0.0 mm 0.00 in0.0 mm 0.00 in0.0 mm
07:30 PM 55.8°F13.2°C -43.9°F-42.2°C 1% 1.0 mph W1.6 kmh W 6.0 mph9.7 kmh 29.34 in993.6 mb 0.00 in0.0 mm 0.00 in0.0 mm 0.00 in0.0 mm
07:35 PM 55.8°F13.2°C -43.9°F-42.2°C 1% 1.0 mph W1.6 kmh W 4.0 mph6.4 kmh 29.34 in993.6 mb 0.00 in0.0 mm 0.00 in0.0 mm 0.00 in0.0 mm
07:40 PM 55.8°F13.2°C -43.9°F-42.2°C 1% Calm Calm 3.0 mph4.8 kmh 29.34 in993.6 mb 0.00 in0.0 mm 0.00 in0.0 mm 0.00 in0.0 mm
07:45 PM 55.8°F13.2°C -43.9°F-42.2°C 1% Calm Calm 3.0 mph4.8 kmh 29.34 in993.6 mb 0.00 in0.0 mm 0.00 in0.0 mm 0.00 in0.0 mm
07:50 PM 55.8°F13.2°C -43.9°F-42.2°C 1% Calm Calm 1.0 mph1.6 kmh 29.34 in993.6 mb 0.00 in0.0 mm 0.00 in0.0 mm 0.00 in0.0 mm
07:55 PM 55.8°F13.2°C -43.9°F-42.2°C 1% Calm Calm 2.0 mph3.2 kmh 29.34 in993.6 mb 0.00 in0.0 mm 0.00 in0.0 mm 0.00 in0.0 mm
08:00 PM 55.8°F13.2°C -43.9°F-42.2°C 1% Calm Calm 2.0 mph3.2 kmh 29.34 in993.6 mb 0.00 in0.0 mm 0.00 in0.0 mm 0.00 in0.0 mm
08:05 PM 55.8°F13.2°C -43.9°F-42.2°C 1% Calm Calm 2.0 mph3.2 kmh 29.34 in993.6 mb 0.00 in0.0 mm 0.00 in0.0 mm 0.00 in0.0 mm
08:10 PM 55.9°F13.3°C -43.8°F-42.1°C 1% 1.0 mph W1.6 kmh W 3.0 mph4.8 kmh 29.34 in993.6 mb 0.00 in0.0 mm 0.00 in0.0 mm 0.00 in0.0 mm
08:15 PM 55.8°F13.2°C -43.9°F-42.2°C 1% Calm Calm 3.0 mph4.8 kmh 29.34 in993.6 mb 0.00 in0.0 mm 0.00 in0.0 mm 0.00 in0.0 mm
08:20 PM 55.9°F13.3°C -43.8°F-42.1°C 1% Calm Calm 2.0 mph3.2 kmh 29.34 in993.6 mb 0.00 in0.0 mm 0.00 in0.0 mm 0.00 in0.0 mm
08:25 PM 55.9°F13.3°C -43.8°F-42.1°C 1% Calm Calm 3.0 mph4.8 kmh 29.34 in993.6 mb 0.00 in0.0 mm 0.00 in0.0 mm 0.00 in0.0 mm
08:30 PM 55.8°F13.2°C -43.9°F-42.2°C 1% 1.0 mph W1.6 kmh W 4.0 mph6.4 kmh 29.34 in993.6 mb 0.00 in0.0 mm 0.00 in0.0 mm 0.00 in0.0 mm
08:35 PM 55.6°F13.1°C -44.0°F-42.2°C 1% 1.0 mph WNW1.6 kmh WNW 4.0 mph6.4 kmh 29.34 in993.6 mb 0.00 in0.0 mm 0.00 in0.0 mm 0.00 in0.0 mm
08:40 PM 55.5°F13.1°C -44.1°F-42.3°C 1% 1.0 mph WNW1.6 kmh WNW 3.0 mph4.8 kmh 29.34 in993.6 mb 0.00 in0.0 mm 0.00 in0.0 mm 0.00 in0.0 mm
08:45 PM 55.5°F13.1°C -44.1°F-42.3°C 1% 1.0 mph WNW1.6 kmh WNW 3.0 mph4.8 kmh 29.34 in993.6 mb 0.00 in0.0 mm 0.00 in0.0 mm 0.00 in0.0 mm
08:50 PM 55.7°F13.2°C -43.9°F-42.2°C 1% 1.0 mph WNW1.6 kmh WNW 4.0 mph6.4 kmh 29.34 in993.6 mb 0.00 in0.0 mm 0.00 in0.0 mm 0.00 in0.0 mm
08:55 PM 55.8°F13.2°C -43.9°F-42.2°C 1% 1.0 mph WNW1.6 kmh WNW 5.0 mph8.0 kmh 29.34 in993.6 mb 0.00 in0.0 mm 0.00 in0.0 mm 0.00 in0.0 mm
09:00 PM 55.9°F13.3°C -43.8°F-42.1°C 1% 2.0 mph NW3.2 kmh NW 5.0 mph8.0 kmh 29.34 in993.6 mb 0.00 in0.0 mm 0.00 in0.0 mm 0.00 in0.0 mm
09:05 PM 56.0°F13.3°C -43.8°F-42.1°C 1% 2.0 mph NW3.2 kmh NW 6.0 mph9.7 kmh 29.34 in993.6 mb 0.00 in0.0 mm 0.00 in0.0 mm 0.00 in0.0 mm
09:10 PM 56.2°F13.4°C -43.6°F-42.0°C 1% 1.0 mph NW1.6 kmh NW 6.0 mph9.7 kmh 29.34 in993.6 mb 0.00 in0.0 mm 0.00 in0.0 mm 0.00 in0.0 mm
09:15 PM 56.2°F13.4°C -43.6°F-42.0°C 1% 1.0 mph NW1.6 kmh NW 5.0 mph8.0 kmh 29.34 in993.6 mb 0.00 in0.0 mm 0.00 in0.0 mm 0.00 in0.0 mm
09:20 PM 56.2°F13.4°C -43.6°F-42.0°C 1% 2.0 mph NW3.2 kmh NW 6.0 mph9.7 kmh 29.34 in993.6 mb 0.00 in0.0 mm 0.00 in0.0 mm 0.00 in0.0 mm
09:25 PM 56.2°F13.4°C -43.6°F-42.0°C 1% 1.0 mph WNW1.6 kmh WNW 6.0 mph9.7 kmh 29.34 in993.6 mb 0.00 in0.0 mm 0.00 in0.0 mm 0.00 in0.0 mm
09:30 PM 56.3°F13.5°C -43.6°F-42.0°C 1% 1.0 mph NW1.6 kmh NW 7.0 mph11.3 kmh 29.34 in993.6 mb 0.00 in0.0 mm 0.00 in0.0 mm 0.00 in0.0 mm
09:35 PM 56.4°F13.6°C -43.5°F-41.9°C 1% 2.0 mph NNW3.2 kmh NNW 7.0 mph11.3 kmh 29.34 in993.6 mb 0.00 in0.0 mm 0.00 in0.0 mm 0.00 in0.0 mm
09:40 PM 56.5°F13.6°C -43.5°F-41.9°C 1% 2.0 mph NNE3.2 kmh NNE 11.0 mph17.7 kmh 29.34 in993.6 mb 0.00 in0.0 mm 0.00 in0.0 mm 0.00 in0.0 mm
09:45 PM 55.9°F13.3°C -43.8°F-42.1°C 1% 4.0 mph NE6.4 kmh NE 11.0 mph17.7 kmh 29.34 in993.6 mb 0.00 in0.0 mm 0.00 in0.0 mm 0.00 in0.0 mm
09:50 PM 55.2°F12.9°C -44.3°F-42.4°C 1% 7.0 mph NE11.3 kmh NE 14.0 mph22.5 kmh 29.34 in993.6 mb 0.00 in0.0 mm 0.00 in0.0 mm 0.00 in0.0 mm
09:55 PM 55.0°F12.8°C -44.4°F-42.4°C 1% 6.0 mph NNE9.7 kmh NNE 14.0 mph22.5 kmh 29.34 in993.6 mb 0.00 in0.0 mm 0.00 in0.0 mm 0.00 in0.0 mm
10:10 PM 54.3°F12.4°C -44.8°F-42.7°C 1% 7.0 mph NNE11.3 kmh NNE 14.0 mph22.5 kmh 29.34 in993.6 mb 0.00 in0.0 mm 0.00 in0.0 mm 0.00 in0.0 mm
10:15 PM 54.1°F12.3°C -44.9°F-42.7°C 1% 8.0 mph NNE12.9 kmh NNE 14.0 mph22.5 kmh 29.34 in993.6 mb 0.00 in0.0 mm 0.00 in0.0 mm 0.00 in0.0 mm
10:20 PM 53.9°F12.2°C -45.1°F-42.8°C 1% 7.0 mph NNE11.3 kmh NNE 14.0 mph22.5 kmh 29.34 in993.6 mb 0.00 in0.0 mm 0.00 in0.0 mm 0.00 in0.0 mm
10:25 PM 53.7°F12.1°C -45.2°F-42.9°C 1% 7.0 mph NE11.3 kmh NE 16.0 mph25.7 kmh 29.34 in993.6 mb 0.00 in0.0 mm 0.00 in0.0 mm 0.00 in0.0 mm
10:30 PM 53.5°F11.9°C -45.3°F-42.9°C 1% 7.0 mph NNE11.3 kmh NNE 16.0 mph25.7 kmh 29.34 in993.6 mb 0.00 in0.0 mm 0.00 in0.0 mm 0.00 in0.0 mm
10:35 PM 53.5°F11.9°C -45.3°F-42.9°C 1% 7.0 mph NNE11.3 kmh NNE 14.0 mph22.5 kmh 29.34 in993.6 mb 0.00 in0.0 mm 0.00 in0.0 mm 0.00 in0.0 mm
10:50 PM 53.3°F11.8°C -45.4°F-43.0°C 1% 8.0 mph NNE12.9 kmh NNE 13.0 mph20.9 kmh 29.34 in993.6 mb 0.00 in0.0 mm 0.00 in0.0 mm 0.00 in0.0 mm
10:55 PM 53.3°F11.8°C -45.4°F-43.0°C 1% 7.0 mph NNE11.3 kmh NNE 13.0 mph20.9 kmh 29.34 in993.6 mb 0.00 in0.0 mm 0.00 in0.0 mm 0.00 in0.0 mm
11:00 PM 53.3°F11.8°C -45.4°F-43.0°C 1% 4.0 mph NE6.4 kmh NE 12.0 mph19.3 kmh 29.34 in993.6 mb 0.00 in0.0 mm 0.00 in0.0 mm 0.00 in0.0 mm
11:05 PM 53.3°F11.8°C -45.4°F-43.0°C 1% 4.0 mph NE6.4 kmh NE 13.0 mph20.9 kmh 29.34 in993.6 mb 0.00 in0.0 mm 0.00 in0.0 mm 0.00 in0.0 mm
11:10 PM 53.3°F11.8°C -45.4°F-43.0°C 1% 5.0 mph NNE8.0 kmh NNE 13.0 mph20.9 kmh 29.34 in993.6 mb 0.00 in0.0 mm 0.00 in0.0 mm 0.00 in0.0 mm
11:15 PM 53.2°F11.8°C -45.5°F-43.1°C 1% 5.0 mph N8.0 kmh N 11.0 mph17.7 kmh 29.34 in993.6 mb 0.00 in0.0 mm 0.00 in0.0 mm 0.00 in0.0 mm
11:20 PM 53.2°F11.8°C -45.5°F-43.1°C 1% 4.0 mph N6.4 kmh N 11.0 mph17.7 kmh 29.34 in993.6 mb 0.00 in0.0 mm 0.00 in0.0 mm 0.00 in0.0 mm
11:25 PM 53.1°F11.7°C -45.5°F-43.1°C 1% 4.0 mph NNE6.4 kmh NNE 11.0 mph17.7 kmh 29.34 in993.6 mb 0.00 in0.0 mm 0.00 in0.0 mm 0.00 in0.0 mm
11:30 PM 53.1°F11.7°C -45.5°F-43.1°C 1% 4.0 mph N6.4 kmh N 11.0 mph17.7 kmh 29.34 in993.6 mb 0.00 in0.0 mm 0.00 in0.0 mm 0.00 in0.0 mm
11:35 PM 52.9°F11.6°C -45.7°F-43.2°C 1% 3.0 mph N4.8 kmh N 11.0 mph17.7 kmh 29.34 in993.6 mb 0.00 in0.0 mm 0.00 in0.0 mm 0.00 in0.0 mm
11:40 PM 52.6°F11.4°C -45.9°F-43.3°C 1% 2.0 mph NNW3.2 kmh NNW 9.0 mph14.5 kmh 29.34 in993.6 mb 0.00 in0.0 mm 0.00 in0.0 mm 0.00 in0.0 mm
11:45 PM 52.5°F11.4°C -45.9°F-43.3°C 1% 2.0 mph N3.2 kmh N 10.0 mph16.1 kmh 29.34 in993.6 mb 0.00 in0.0 mm 0.00 in0.0 mm 0.00 in0.0 mm
11:50 PM 52.4°F11.3°C -46.0°F-43.3°C 1% 2.0 mph N3.2 kmh N 10.0 mph16.1 kmh 29.34 in993.6 mb 0.00 in0.0 mm 0.00 in0.0 mm 0.00 in0.0 mm
11:55 PM 52.4°F11.3°C -46.0°F-43.3°C 1% 1.0 mph N1.6 kmh N 3.0 mph4.8 kmh 29.34 in993.6 mb 0.00 in0.0 mm 0.00 in0.0 mm 0.00 in0.0 mm